Time;durP1;ratioP1;P1;durP2;ratioP2;P2;SDS_P1;SDS_P2;PMS_P1;PMS_P2;Temp;Humidity;BMP_temperature;BMP_pressure;BME280_temperature;BME280_humidity;BME280_pressure;Samples;Min_cycle;Max_cycle;Signal;HPM_P1;HPM_P2
2022/12/03 00:02:15;;;;;;;30.02;15.80;;;2.70;99.90;;;;;;4984603;28;20037;-78
2022/12/03 00:04:41;;;;;;;29.63;15.25;;;2.90;99.90;;;;;;4999779;28;20109;-79
2022/12/03 00:07:06;;;;;;;32.00;16.20;;;3.20;99.90;;;;;;4984283;28;20183;-79
2022/12/03 00:09:32;;;;;;;27.92;15.07;;;2.80;99.90;;;;;;4999407;28;20079;-78
2022/12/03 00:11:58;;;;;;;29.90;15.50;;;2.70;99.90;;;;;;5014737;28;21977;-78
2022/12/03 00:14:24;;;;;;;29.65;15.70;;;2.70;99.90;;;;;;4982302;28;20034;-78
2022/12/03 00:16:49;;;;;;;28.98;15.38;;;2.70;99.90;;;;;;4982134;28;20049;-78
2022/12/03 00:19:15;;;;;;;29.58;15.90;;;3.80;99.90;;;;;;4981765;28;20394;-78
2022/12/03 00:21:41;;;;;;;30.40;15.35;;;2.80;99.90;;;;;;4982833;28;20076;-78
2022/12/03 00:24:07;;;;;;;32.58;15.55;;;2.80;99.90;;;;;;5000020;28;20037;-78
2022/12/03 00:26:32;;;;;;;32.08;16.15;;;2.80;99.90;;;;;;4999279;28;20119;-78
2022/12/03 00:28:58;;;;;;;31.33;15.45;;;2.80;99.90;;;;;;4999338;28;20045;-78
2022/12/03 00:31:24;;;;;;;31.23;16.40;;;2.80;99.90;;;;;;4973425;28;20038;-79
2022/12/03 00:33:50;;;;;;;32.15;16.55;;;3.60;99.90;;;;;;5015498;28;20449;-78
2022/12/03 00:36:17;;;;;;;32.70;17.10;;;2.80;99.90;;;;;;4998664;28;20073;-78
2022/12/03 00:38:42;;;;;;;33.03;17.08;;;2.80;99.90;;;;;;4998682;28;20046;-78
2022/12/03 00:41:08;;;;;;;29.90;15.85;;;2.80;99.90;;;;;;4988514;28;20053;-79
2022/12/03 00:43:34;;;;;;;33.28;16.60;;;3.80;99.90;;;;;;4986948;28;20041;-78
2022/12/03 00:45:59;;;;;;;33.70;17.00;;;2.90;99.90;;;;;;4984063;28;20042;-78
2022/12/03 00:48:25;;;;;;;31.25;17.08;;;2.90;99.90;;;;;;5015352;28;20477;-78
2022/12/03 00:50:51;;;;;;;34.70;17.23;;;2.90;99.90;;;;;;4998822;28;20045;-78
2022/12/03 00:53:17;;;;;;;30.33;16.52;;;2.90;99.90;;;;;;4998370;28;20096;-78
2022/12/03 00:55:43;;;;;;;38.45;18.10;;;3.00;99.90;;;;;;4982269;28;20041;-78
2022/12/03 00:58:08;;;;;;;30.67;15.50;;;2.90;99.90;;;;;;4998032;28;20396;-78
2022/12/03 01:00:35;;;;;;;32.47;16.58;;;4.20;99.90;;;;;;4998494;28;20037;-78
2022/12/03 01:03:01;;;;;;;33.38;16.88;;;2.90;99.90;;;;;;4998816;28;20086;-78
2022/12/03 01:05:26;;;;;;;34.97;16.80;;;2.90;99.90;;;;;;4994975;28;20112;-78
2022/12/03 01:07:52;;;;;;;33.15;16.48;;;2.90;99.90;;;;;;4966722;28;20057;-78
2022/12/03 01:10:18;;;;;;;34.83;17.52;;;3.90;99.90;;;;;;4985148;28;20049;-78
2022/12/03 01:12:43;;;;;;;32.35;17.25;;;2.90;99.90;;;;;;4978690;28;20128;-79
2022/12/03 01:15:10;;;;;;;32.90;17.20;;;2.90;99.90;;;;;;5009909;28;20116;-78
2022/12/03 01:17:36;;;;;;;32.22;16.38;;;2.90;99.90;;;;;;5010470;28;20505;-78
2022/12/03 01:20:04;;;;;;;36.88;18.17;;;2.90;99.90;;;;;;4994762;28;20112;-78
2022/12/03 01:22:30;;;;;;;36.08;18.25;;;2.90;99.90;;;;;;4994628;28;20038;-78
2022/12/03 01:24:55;;;;;;;37.42;17.55;;;2.90;99.90;;;;;;4983045;28;20061;-78
2022/12/03 01:27:21;;;;;;;35.65;16.52;;;2.90;99.90;;;;;;4979129;28;20034;-78
2022/12/03 01:29:47;;;;;;;33.53;17.67;;;2.90;99.90;;;;;;4995484;28;20053;-78
2022/12/03 01:32:18;;;;;;;37.53;18.15;;;2.90;99.90;;;;;;4995940;28;20581;-78
2022/12/03 01:34:49;;;;;;;33.33;16.50;;;2.90;99.90;;;;;;4995885;28;20046;-78
2022/12/03 01:37:17;;;;;;;31.98;17.30;;;2.90;99.90;;;;;;5011478;28;20132;-78
2022/12/03 01:39:43;;;;;;;33.22;16.55;;;3.00;99.90;;;;;;4995202;28;20444;-78
2022/12/03 01:42:15;;;;;;;33.90;17.13;;;3.00;99.90;;;;;;4994997;28;20061;-79
2022/12/03 01:44:41;;;;;;;33.85;17.33;;;3.00;99.90;;;;;;4993713;28;20041;-78
2022/12/03 01:47:15;;;;;;;32.97;17.20;;;3.40;99.90;;;;;;4992406;28;20046;-78
2022/12/03 01:49:49;;;;;;;37.17;18.67;;;3.00;99.90;;;;;;4993319;28;20048;-78
2022/12/03 01:52:18;;;;;;;36.70;18.33;;;3.00;99.90;;;;;;5010778;28;20088;-78
2022/12/03 01:54:48;;;;;;;35.15;18.08;;;3.00;99.90;;;;;;4994342;28;20069;-78
2022/12/03 01:57:21;;;;;;;36.47;18.00;;;3.00;99.90;;;;;;4992752;28;20377;-78
2022/12/03 01:59:47;;;;;;;34.13;17.02;;;3.00;99.90;;;;;;4993099;28;20046;-78
2022/12/03 02:02:19;;;;;;;34.15;17.77;;;3.60;99.90;;;;;;4993179;28;20500;-78
2022/12/03 02:04:46;;;;;;;33.15;17.27;;;3.70;99.90;;;;;;5008215;28;20058;-78
2022/12/03 02:07:19;;;;;;;38.38;17.98;;;4.20;99.90;;;;;;4991486;28;20041;-78
2022/12/03 02:09:45;;;;;;;36.42;18.27;;;3.00;99.90;;;;;;5010752;28;20034;-78
2022/12/03 02:12:13;;;;;;;33.00;17.92;;;3.10;99.90;;;;;;4993881;28;20045;-78
2022/12/03 02:14:39;;;;;;;33.63;17.98;;;4.30;99.90;;;;;;4977564;28;20050;-78
2022/12/03 02:17:04;;;;;;;33.22;17.25;;;3.00;99.90;;;;;;5009679;28;20048;-78
2022/12/03 02:19:30;;;;;;;33.22;16.50;;;3.00;99.90;;;;;;4967263;28;20494;-78
2022/12/03 02:22:23;;;;;;;32.80;17.50;;;3.10;99.90;;;;;;4992714;28;20046;-78
2022/12/03 02:24:56;;;;;;;32.75;17.98;;;3.10;99.90;;;;;;5009411;28;20084;-78
2022/12/03 02:27:22;;;;;;;31.13;17.45;;;3.90;99.90;;;;;;5009353;28;20038;-78
2022/12/03 02:29:47;;;;;;;35.80;17.60;;;3.20;99.90;;;;;;4969578;28;20524;-78
2022/12/03 02:32:13;;;;;;;34.58;18.13;;;3.10;99.90;;;;;;4993513;28;20042;-78
2022/12/03 02:34:44;;;;;;;35.40;18.00;;;4.20;99.90;;;;;;4977465;28;20045;-78
2022/12/03 02:37:18;;;;;;;33.28;17.45;;;3.10;99.90;;;;;;5010647;28;20556;-79
2022/12/03 02:39:48;;;;;;;32.15;17.55;;;3.10;99.90;;;;;;5010771;28;20041;-78
2022/12/03 02:45:02;;;;;;;34.10;17.45;;;4.50;99.90;;;;;;5010096;28;20038;-78
2022/12/03 02:47:30;;;;;;;31.27;16.30;;;4.40;99.90;;;;;;4994481;28;20037;-79
2022/12/03 02:49:56;;;;;;;34.10;18.00;;;3.20;99.90;;;;;;4995054;28;20390;-78
2022/12/03 02:52:22;;;;;;;32.63;17.77;;;3.30;99.90;;;;;;5010812;28;20042;-78
2022/12/03 02:54:48;;;;;;;30.45;16.98;;;3.20;99.90;;;;;;4993163;28;20049;-78
2022/12/03 02:57:15;;;;;;;30.30;16.63;;;3.20;99.90;;;;;;5009346;28;20042;-78
2022/12/03 02:59:44;;;;;;;35.13;18.63;;;3.20;99.90;;;;;;4967956;28;20033;-78
2022/12/03 03:02:13;;;;;;;29.42;17.13;;;3.20;99.90;;;;;;4976797;28;20547;-78
2022/12/03 03:04:40;;;;;;;28.98;16.98;;;3.20;99.90;;;;;;5009640;28;20049;-78
2022/12/03 03:07:06;;;;;;;29.85;16.35;;;3.20;99.90;;;;;;5001920;28;20069;-78
2022/12/03 03:09:32;;;;;;;30.85;17.02;;;4.20;99.90;;;;;;4993688;28;20103;-78
2022/12/03 03:11:58;;;;;;;32.88;17.70;;;3.40;99.90;;;;;;4993921;28;20052;-78
2022/12/03 03:14:24;;;;;;;30.70;17.42;;;3.10;99.90;;;;;;4982383;28;20042;-78
2022/12/03 03:16:54;;;;;;;29.90;17.02;;;3.20;99.90;;;;;;4983832;28;20053;-78
2022/12/03 03:19:23;;;;;;;30.20;17.08;;;3.20;99.90;;;;;;4980844;28;20045;-78
2022/12/03 03:21:49;;;;;;;29.23;16.52;;;4.40;99.90;;;;;;4997443;28;20088;-78
2022/12/03 03:24:15;;;;;;;30.42;17.20;;;4.00;99.90;;;;;;4995952;28;20042;-78
2022/12/03 03:26:40;;;;;;;28.77;16.60;;;3.20;99.90;;;;;;4996812;28;20041;-78
2022/12/03 03:29:06;;;;;;;30.77;17.40;;;4.40;99.90;;;;;;4980720;28;20402;-79
2022/12/03 03:31:32;;;;;;;32.40;17.65;;;3.20;99.90;;;;;;4995309;28;20507;-78
2022/12/03 03:33:58;;;;;;;29.58;16.98;;;3.20;99.90;;;;;;4996712;28;20109;-79
2022/12/03 03:36:25;;;;;;;29.67;17.55;;;3.80;99.90;;;;;;4980337;28;20073;-78
2022/12/03 03:38:51;;;;;;;32.50;17.00;;;3.80;99.90;;;;;;4978734;28;20085;-79
2022/12/03 03:41:19;;;;;;;29.67;17.50;;;3.90;99.90;;;;;;5001159;28;20542;-78
2022/12/03 03:43:46;;;;;;;28.70;17.15;;;3.60;99.90;;;;;;5011011;28;20042;-78
2022/12/03 03:46:13;;;;;;;32.30;17.70;;;3.20;99.90;;;;;;5013199;28;20393;-78
2022/12/03 03:48:40;;;;;;;32.47;18.27;;;3.20;99.90;;;;;;4996091;28;20046;-78
2022/12/03 03:51:08;;;;;;;32.67;18.58;;;4.10;99.90;;;;;;5002832;28;20085;-78
2022/12/03 03:53:36;;;;;;;31.45;17.60;;;3.90;99.90;;;;;;4979411;28;20049;-78
2022/12/03 03:56:02;;;;;;;34.17;18.08;;;3.70;99.90;;;;;;4979362;28;20050;-79
2022/12/03 03:58:28;;;;;;;34.42;18.48;;;3.20;99.90;;;;;;5013081;28;20096;-78
2022/12/03 04:00:53;;;;;;;30.38;18.15;;;3.20;99.90;;;;;;4996011;28;20060;-78
2022/12/03 04:03:19;;;;;;;29.83;15.70;;;3.30;99.90;;;;;;4995507;28;20076;-79
2022/12/03 04:05:45;;;;;;;32.35;18.13;;;4.70;99.90;;;;;;4995824;28;20058;-78
2022/12/03 04:08:11;;;;;;;33.40;19.48;;;3.30;99.90;;;;;;4996838;28;20093;-78
2022/12/03 04:13:21;;;;;;;34.63;19.10;;;3.20;99.90;;;;;;5011812;28;20489;-78
2022/12/03 04:15:46;;;;;;;34.05;18.88;;;3.20;99.90;;;;;;4979723;28;20096;-78
2022/12/03 04:22:38;;;;;;;34.13;18.52;;;4.30;99.90;;;;;;4984438;28;20650;-78
2022/12/03 04:23:42;;;;;;;32.10;18.03;;;3.10;99.90;;;;;;4997769;28;20042;-78
2022/12/03 04:28:51;;;;;;;32.00;18.67;;;3.90;99.90;;;;;;4996400;28;20088;-79
2022/12/03 04:36:46;;;;;;;34.72;18.67;;;3.50;99.90;;;;;;4977205;28;20077;-78
2022/12/03 04:39:12;;;;;;;32.10;18.30;;;4.20;99.90;;;;;;4994766;28;20127;-78
2022/12/03 04:41:37;;;;;;;28.98;17.15;;;4.30;99.90;;;;;;5011191;28;20052;-78
2022/12/03 04:47:07;;;;;;;31.42;18.08;;;3.00;99.90;;;;;;4991457;28;20046;-78
2022/12/03 04:49:35;;;;;;;33.78;17.73;;;3.00;99.90;;;;;;4995223;28;20375;-78
2022/12/03 04:52:01;;;;;;;29.85;17.10;;;2.90;99.90;;;;;;4967934;28;20099;-78
2022/12/03 04:54:27;;;;;;;29.38;17.80;;;2.90;99.90;;;;;;4996102;28;20050;-78
2022/12/03 04:56:53;;;;;;;31.73;18.45;;;2.90;99.90;;;;;;4981756;28;20048;-78
2022/12/03 04:59:19;;;;;;;29.10;17.27;;;3.70;99.90;;;;;;4995441;28;20474;-78
2022/12/03 05:01:45;;;;;;;30.80;17.05;;;2.90;99.90;;;;;;5012636;28;20093;-78
2022/12/03 05:04:11;;;;;;;30.10;17.60;;;2.90;99.90;;;;;;5014358;28;20083;-78
2022/12/03 05:06:37;;;;;;;30.92;17.92;;;4.80;99.90;;;;;;4982155;28;20096;-79
2022/12/03 05:09:03;;;;;;;30.48;16.98;;;3.60;99.90;;;;;;4997498;28;20486;-78
2022/12/03 05:11:29;;;;;;;32.72;18.33;;;2.90;99.90;;;;;;4997909;28;20064;-78
2022/12/03 05:13:54;;;;;;;33.40;18.67;;;2.80;99.90;;;;;;4998098;28;20096;-78
2022/12/03 05:16:20;;;;;;;32.28;17.05;;;3.80;99.90;;;;;;4998853;28;20048;-78
2022/12/03 05:18:46;;;;;;;32.75;17.08;;;2.80;99.90;;;;;;4966483;28;20136;-78
2022/12/03 05:21:12;;;;;;;30.13;17.23;;;3.20;99.90;;;;;;4982085;28;20045;-78
2022/12/03 05:23:37;;;;;;;31.55;17.67;;;4.40;99.90;;;;;;4999604;28;20045;-78
2022/12/03 05:26:03;;;;;;;32.75;18.23;;;2.80;99.90;;;;;;4974082;28;20485;-78
2022/12/03 05:28:29;;;;;;;34.50;18.90;;;3.20;99.90;;;;;;4998908;28;20034;-78
2022/12/03 05:30:54;;;;;;;33.28;17.98;;;2.80;99.90;;;;;;5015397;28;20474;-78
2022/12/03 05:33:20;;;;;;;32.72;17.88;;;2.80;99.90;;;;;;4997746;28;20037;-78
2022/12/03 05:35:46;;;;;;;34.08;17.73;;;3.10;99.90;;;;;;4964462;28;20041;-78
2022/12/03 05:38:12;;;;;;;31.75;18.05;;;2.80;99.90;;;;;;4982800;28;20063;-78
2022/12/03 05:40:38;;;;;;;32.10;17.90;;;2.80;99.90;;;;;;4997055;28;20041;-78
2022/12/03 05:43:04;;;;;;;30.10;17.35;;;2.80;99.90;;;;;;5012283;28;20493;-78
2022/12/03 05:45:33;;;;;;;31.80;18.05;;;3.70;99.90;;;;;;4996182;28;20123;-78
2022/12/03 05:48:00;;;;;;;36.17;19.00;;;2.70;99.90;;;;;;4997772;28;20592;-78
2022/12/03 05:50:29;;;;;;;34.08;18.60;;;2.80;99.90;;;;;;4997667;28;20098;-78
2022/12/03 05:52:55;;;;;;;34.58;18.75;;;2.80;99.90;;;;;;5013986;28;20456;-77
2022/12/03 05:55:21;;;;;;;33.00;17.58;;;2.70;99.90;;;;;;4996684;28;20033;-78
2022/12/03 05:57:47;;;;;;;30.42;16.85;;;2.70;99.90;;;;;;4995593;28;20501;-77
2022/12/03 06:00:16;;;;;;;32.15;18.40;;;2.70;99.90;;;;;;4996905;28;20489;-78
2022/12/03 06:02:43;;;;;;;30.60;17.77;;;2.70;99.90;;;;;;4996370;28;20037;-78
2022/12/03 06:05:11;;;;;;;34.00;18.33;;;2.70;99.90;;;;;;5012343;28;20493;-78
2022/12/03 06:07:37;;;;;;;31.40;17.98;;;2.70;99.90;;;;;;5012585;28;20049;-78
2022/12/03 06:10:08;;;;;;;34.00;17.67;;;2.80;99.90;;;;;;4996433;28;20037;-78
2022/12/03 06:12:33;;;;;;;33.67;17.70;;;2.80;99.90;;;;;;5012243;28;20037;-78
2022/12/03 06:14:59;;;;;;;30.35;17.08;;;2.70;99.90;;;;;;4996215;28;20095;-78
2022/12/03 06:17:25;;;;;;;30.80;17.42;;;2.70;99.90;;;;;;4994709;28;20445;-78
2022/12/03 06:19:51;;;;;;;30.70;17.45;;;2.70;99.90;;;;;;4978818;28;20037;-78
2022/12/03 06:22:17;;;;;;;31.77;17.90;;;2.80;99.90;;;;;;4978966;28;20045;-78
2022/12/03 06:24:43;;;;;;;31.23;17.85;;;2.90;99.90;;;;;;4995109;28;20056;-78
2022/12/03 06:27:09;;;;;;;32.22;18.02;;;2.70;99.90;;;;;;4996180;28;20436;-78
2022/12/03 06:29:35;;;;;;;29.33;17.42;;;2.70;99.90;;;;;;5013391;28;20488;-77
2022/12/03 06:32:01;;;;;;;31.85;18.48;;;3.90;99.90;;;;;;5013628;28;20075;-78
2022/12/03 06:34:26;;;;;;;29.42;17.42;;;2.70;99.90;;;;;;4996038;28;20099;-78
2022/12/03 06:36:52;;;;;;;30.33;17.15;;;2.70;99.90;;;;;;4981681;28;20045;-78
2022/12/03 06:39:18;;;;;;;31.38;18.13;;;2.60;99.90;;;;;;4996044;28;20107;-78
2022/12/03 06:41:44;;;;;;;30.17;17.65;;;3.40;99.90;;;;;;5012905;28;20079;-78
2022/12/03 06:44:09;;;;;;;32.70;17.52;;;3.50;99.90;;;;;;4996340;28;20099;-78
2022/12/03 06:46:35;;;;;;;31.63;18.25;;;2.70;99.90;;;;;;4979529;28;20121;-78
2022/12/03 06:49:01;;;;;;;33.90;18.75;;;2.70;99.90;;;;;;4994555;28;20046;-78
2022/12/03 06:51:27;;;;;;;35.85;18.67;;;2.90;99.90;;;;;;4996553;28;20049;-77
2022/12/03 06:53:53;;;;;;;33.97;18.52;;;2.70;99.90;;;;;;4997408;28;20042;-78
2022/12/03 06:56:18;;;;;;;34.65;18.73;;;2.70;99.90;;;;;;4952893;28;20053;-78
2022/12/03 06:58:44;;;;;;;35.50;18.85;;;3.20;99.90;;;;;;4997217;28;20049;-77
2022/12/03 07:01:10;;;;;;;36.88;19.52;;;3.20;99.90;;;;;;4995701;28;20078;-78
2022/12/03 07:03:51;;;;;;;35.85;19.15;;;2.60;99.90;;;;;;4969605;28;20466;-78
2022/12/03 07:06:16;;;;;;;35.53;20.23;;;3.70;99.90;;;;;;4955312;28;20100;-78
2022/12/03 07:08:42;;;;;;;36.35;19.80;;;3.80;99.90;;;;;;4980206;28;20041;-78
2022/12/03 07:11:29;;;;;;;34.40;20.23;;;4.00;99.90;;;;;;5012285;28;20045;-78
2022/12/03 07:13:53;;;;;;;39.07;19.53;;;3.80;99.90;;;;;;4978949;28;20052;-78
2022/12/03 07:16:19;;;;;;;39.90;20.73;;;2.60;99.90;;;;;;5013024;28;20059;-78
2022/12/03 07:18:45;;;;;;;38.92;20.83;;;3.00;99.90;;;;;;4994799;28;20045;-78
2022/12/03 07:21:11;;;;;;;38.80;20.75;;;2.60;99.90;;;;;;4996761;28;20041;-78
2022/12/03 07:23:37;;;;;;;40.05;20.52;;;2.60;99.90;;;;;;4996379;28;20485;-78
2022/12/03 07:26:03;;;;;;;37.00;20.30;;;2.70;99.90;;;;;;4997849;28;20107;-78
2022/12/03 07:28:28;;;;;;;37.85;20.20;;;2.60;99.90;;;;;;4963043;28;20040;-77
2022/12/03 07:30:54;;;;;;;38.00;21.42;;;2.60;99.90;;;;;;4997572;28;20037;-78
2022/12/03 07:33:19;;;;;;;39.67;21.90;;;3.10;99.90;;;;;;4995646;28;20041;-79
2022/12/03 07:35:45;;;;;;;35.65;20.45;;;3.90;99.90;;;;;;4995436;28;20048;-78
2022/12/03 07:38:11;;;;;;;37.10;19.65;;;2.60;99.90;;;;;;4970126;28;20095;-78
2022/12/03 07:40:37;;;;;;;37.67;20.05;;;3.30;99.90;;;;;;4997269;28;20041;-77
2022/12/03 07:43:02;;;;;;;38.30;20.95;;;2.60;99.90;;;;;;4997616;28;20047;-78
2022/12/03 07:45:28;;;;;;;37.15;20.42;;;2.60;99.90;;;;;;4981639;28;20042;-78
2022/12/03 07:47:53;;;;;;;42.78;23.08;;;3.00;99.90;;;;;;4997234;28;20037;-79
2022/12/03 07:50:19;;;;;;;41.22;22.05;;;2.70;99.90;;;;;;4985755;28;20044;-78
2022/12/03 07:52:45;;;;;;;40.40;23.65;;;2.80;99.90;;;;;;4958148;28;20026;-78
2022/12/03 07:55:12;;;;;;;42.10;21.17;;;2.70;99.90;;;;;;5012436;28;20037;-78
2022/12/03 07:57:38;;;;;;;43.83;22.50;;;4.00;99.90;;;;;;5019811;28;20099;-78
2022/12/03 08:00:05;;;;;;;41.58;21.90;;;3.30;99.90;;;;;;4980105;28;20034;-78
2022/12/03 08:02:31;;;;;;;39.65;21.88;;;2.60;99.90;;;;;;4996424;28;20485;-78
2022/12/03 08:04:56;;;;;;;40.63;22.38;;;2.60;99.90;;;;;;4997212;28;20100;-80
2022/12/03 08:07:22;;;;;;;41.75;21.65;;;2.60;99.90;;;;;;4999639;28;20515;-78
2022/12/03 08:09:49;;;;;;;41.30;22.27;;;3.70;99.90;;;;;;4982049;28;20112;-80
2022/12/03 08:12:38;;;;;;;45.05;24.23;;;3.80;99.90;;;;;;5016077;28;20128;-80
2022/12/03 08:15:15;;;;;;;39.92;21.70;;;3.10;99.90;;;;;;4997896;28;20044;-80
2022/12/03 08:17:42;;;;;;;45.47;22.65;;;2.60;99.90;;;;;;5000031;28;20977;-79
2022/12/03 08:20:18;;;;;;;43.20;22.67;;;2.50;99.90;;;;;;5000055;28;20048;-79
2022/12/03 08:22:46;;;;;;;42.35;22.08;;;2.50;99.90;;;;;;5006947;28;20072;-79
2022/12/03 08:25:32;;;;;;;48.55;24.05;;;2.50;99.90;;;;;;4999645;28;20095;-79
2022/12/03 08:28:07;;;;;;;46.47;22.88;;;2.50;99.90;;;;;;4998974;28;20084;-79
2022/12/03 08:30:33;;;;;;;41.83;23.05;;;2.50;99.90;;;;;;4991060;28;20105;-78
2022/12/03 08:32:59;;;;;;;44.45;23.23;;;3.40;99.90;;;;;;5016811;28;20120;-78
2022/12/03 08:35:29;;;;;;;46.03;23.95;;;2.50;99.90;;;;;;4958967;28;20057;-78
2022/12/03 08:38:00;;;;;;;45.03;22.92;;;3.90;99.90;;;;;;4999091;28;20045;-79
2022/12/03 08:40:35;;;;;;;43.20;23.08;;;3.10;99.90;;;;;;4998027;28;20041;-79
2022/12/03 08:43:08;;;;;;;43.73;23.67;;;2.50;99.90;;;;;;4992280;28;20037;-79
2022/12/03 08:45:38;;;;;;;46.70;23.02;;;2.90;99.90;;;;;;4989341;28;20045;-79
2022/12/03 08:48:21;;;;;;;43.10;22.40;;;2.50;99.90;;;;;;5009380;28;20107;-79
2022/12/03 08:50:47;;;;;;;45.45;23.15;;;2.50;99.90;;;;;;5016960;28;20045;-79
2022/12/03 08:53:12;;;;;;;43.33;22.92;;;2.50;99.90;;;;;;4983420;28;20099;-79
2022/12/03 08:55:45;;;;;;;49.85;23.77;;;3.20;99.90;;;;;;4998703;28;20042;-79
2022/12/03 08:58:26;;;;;;;41.72;20.80;;;2.50;99.90;;;;;;5015453;28;20374;-79
2022/12/03 09:01:04;;;;;;;47.28;22.25;;;2.50;99.90;;;;;;5014810;28;20041;-79
2022/12/03 09:03:31;;;;;;;45.85;22.48;;;2.40;99.90;;;;;;4998777;28;20047;-79
2022/12/03 09:05:57;;;;;;;42.65;21.48;;;2.40;99.90;;;;;;4967424;28;20057;-78
2022/12/03 09:08:22;;;;;;;44.00;22.63;;;2.40;99.90;;;;;;4983521;28;20030;-79
2022/12/03 09:10:48;;;;;;;40.67;22.13;;;3.90;99.90;;;;;;5006345;28;20069;-79
2022/12/03 09:13:14;;;;;;;43.45;22.38;;;2.90;99.90;;;;;;5015388;28;20049;-78
2022/12/03 09:15:40;;;;;;;44.38;23.35;;;2.40;99.90;;;;;;4983109;28;20047;-79
2022/12/03 09:18:05;;;;;;;46.97;22.75;;;2.40;99.90;;;;;;4982979;28;20048;-78
2022/12/03 09:20:31;;;;;;;45.38;23.65;;;2.40;99.90;;;;;;4959533;28;20049;-78
2022/12/03 09:22:57;;;;;;;45.70;22.17;;;2.40;99.90;;;;;;4982208;28;20413;-78
2022/12/03 09:25:23;;;;;;;45.83;22.77;;;2.40;99.90;;;;;;4982298;28;20041;-78
2022/12/03 09:27:48;;;;;;;49.88;23.65;;;2.40;99.90;;;;;;4997835;28;20500;-78
2022/12/03 09:30:15;;;;;;;42.92;22.15;;;3.80;99.90;;;;;;4982521;28;20072;-78
2022/12/03 09:32:40;;;;;;;47.10;23.45;;;2.40;99.90;;;;;;4982478;28;20087;-79
2022/12/03 09:35:07;;;;;;;41.45;22.42;;;2.50;99.90;;;;;;4997979;28;20073;-80
2022/12/03 09:37:33;;;;;;;38.97;22.20;;;2.40;99.90;;;;;;4981927;28;20065;-79
2022/12/03 09:39:59;;;;;;;40.25;21.25;;;2.40;99.90;;;;;;4996676;28;20033;-80
2022/12/03 09:42:25;;;;;;;45.30;22.17;;;2.40;99.90;;;;;;4982663;28;20056;-79
2022/12/03 09:44:51;;;;;;;42.55;22.95;;;4.10;99.90;;;;;;4998714;28;20086;-79
2022/12/03 09:47:17;;;;;;;42.90;22.95;;;3.30;99.90;;;;;;4982156;28;20041;-79
2022/12/03 09:49:43;;;;;;;41.55;22.05;;;2.50;99.90;;;;;;4998474;28;20041;-80
2022/12/03 09:52:15;;;;;;;36.75;20.48;;;2.80;99.90;;;;;;4997978;28;20072;-79
2022/12/03 09:54:42;;;;;;;39.80;21.50;;;2.50;99.90;;;;;;5013773;28;20045;-79
2022/12/03 09:57:12;;;;;;;42.08;21.35;;;2.50;99.90;;;;;;4982468;28;20079;-79
2022/12/03 09:59:38;;;;;;;38.08;22.08;;;2.40;99.90;;;;;;4989628;28;20052;-80
2022/12/03 10:02:18;;;;;;;42.28;21.70;;;2.40;99.90;;;;;;5014181;28;20056;-79
2022/12/03 10:04:44;;;;;;;42.08;22.45;;;3.90;99.90;;;;;;4996852;28;20054;-79
2022/12/03 10:07:10;;;;;;;40.83;21.13;;;3.60;99.90;;;;;;4981424;28;20048;-80
2022/12/03 10:09:36;;;;;;;42.70;21.85;;;3.10;99.90;;;;;;4995338;28;20045;-80
2022/12/03 10:12:01;;;;;;;45.35;22.35;;;2.50;99.90;;;;;;4996344;28;20053;-78
2022/12/03 10:14:28;;;;;;;42.72;22.17;;;2.50;99.90;;;;;;4978096;28;20040;-77
2022/12/03 10:16:54;;;;;;;44.63;23.65;;;2.50;99.90;;;;;;5013816;28;20449;-78
2022/12/03 10:19:27;;;;;;;43.35;22.63;;;2.50;99.90;;;;;;4979560;28;20120;-78
2022/12/03 10:21:54;;;;;;;42.45;22.83;;;2.80;99.90;;;;;;4995383;28;20075;-78
2022/12/03 10:24:29;;;;;;;42.63;23.00;;;3.30;99.90;;;;;;4987044;28;20057;-78
2022/12/03 10:26:58;;;;;;;41.38;21.15;;;2.50;99.90;;;;;;5009693;28;20045;-78
2022/12/03 10:29:32;;;;;;;42.22;21.65;;;2.50;99.90;;;;;;4993312;28;20045;-78
2022/12/03 10:32:10;;;;;;;39.03;20.48;;;2.60;99.90;;;;;;5005631;28;20060;-78
2022/12/03 10:34:39;;;;;;;45.83;24.08;;;2.60;99.90;;;;;;5010992;28;20060;-80
2022/12/03 10:37:16;;;;;;;44.47;21.63;;;2.60;99.90;;;;;;5020060;28;20044;-77
2022/12/03 10:39:51;;;;;;;42.83;22.25;;;2.60;99.90;;;;;;5014472;28;20041;-77
2022/12/03 10:42:18;;;;;;;43.33;22.13;;;2.60;99.90;;;;;;4985233;28;20041;-77
2022/12/03 10:44:44;;;;;;;43.95;23.05;;;2.60;99.90;;;;;;4993201;28;20033;-77
2022/12/03 10:47:12;;;;;;;43.50;22.48;;;3.30;99.90;;;;;;4972800;28;20056;-77
2022/12/03 10:49:40;;;;;;;40.42;23.00;;;2.60;99.90;;;;;;5014056;28;20033;-77
2022/12/03 10:52:20;;;;;;;41.65;22.45;;;2.50;99.90;;;;;;4998113;28;20051;-77
2022/12/03 10:54:46;;;;;;;45.95;23.50;;;2.90;99.90;;;;;;5012755;28;20092;-78
2022/12/03 10:57:12;;;;;;;45.63;22.33;;;2.60;99.90;;;;;;4995896;28;20131;-77
2022/12/03 10:59:40;;;;;;;47.03;22.77;;;2.60;99.90;;;;;;4975682;28;20124;-78
2022/12/03 11:02:20;;;;;;;46.22;23.83;;;4.00;99.90;;;;;;5009263;28;20457;-78
2022/12/03 11:04:47;;;;;;;46.78;23.38;;;2.60;99.90;;;;;;4995042;28;20429;-78
2022/12/03 11:07:20;;;;;;;43.92;22.30;;;2.90;99.90;;;;;;4995972;28;20456;-80
2022/12/03 11:09:53;;;;;;;47.67;23.00;;;2.60;99.90;;;;;;4994133;28;20048;-78
2022/12/03 11:12:23;;;;;;;;;;;3.80;99.90;;;;;;5012819;28;20060;-81
2022/12/03 11:14:49;;;;;;;44.97;22.80;;;3.90;99.90;;;;;;4994482;28;19979;-77
2022/12/03 11:17:43;;;;;;;42.28;20.73;;;2.70;99.90;;;;;;4996344;28;20041;-77
2022/12/03 11:20:24;;;;;;;47.67;23.67;;;2.70;99.90;;;;;;4987282;28;20128;-76
2022/12/03 11:22:51;;;;;;;50.70;25.08;;;2.70;99.90;;;;;;5007420;28;20038;-78
2022/12/03 11:25:23;;;;;;;46.95;25.35;;;2.70;99.90;;;;;;5000985;28;20044;-78
2022/12/03 11:28:13;;;;;;;46.38;24.50;;;4.40;99.90;;;;;;5005466;28;20034;-78
2022/12/03 11:30:52;;;;;;;45.40;23.42;;;2.70;99.90;;;;;;5003575;28;20041;-78
2022/12/03 11:33:21;;;;;;;45.63;23.48;;;2.90;99.90;;;;;;4995980;28;20061;-78
2022/12/03 11:36:02;;;;;;;49.42;25.02;;;2.70;99.90;;;;;;4996965;28;20370;-77
2022/12/03 11:38:37;;;;;;;51.65;25.15;;;2.80;99.90;;;;;;5005015;28;20052;-78
2022/12/03 11:41:17;;;;;;;47.10;24.52;;;2.80;99.90;;;;;;5016879;28;20041;-78
2022/12/03 11:43:52;;;;;;;44.63;23.10;;;2.80;99.90;;;;;;4997962;28;20123;-78
2022/12/03 11:46:29;;;;;;;49.03;23.73;;;3.70;99.90;;;;;;4998734;28;20037;-78
2022/12/03 11:48:57;;;;;;;39.90;19.65;;;2.80;99.90;;;;;;5014440;28;20041;-78
2022/12/03 11:51:26;;;;;;;47.20;24.08;;;2.80;99.90;;;;;;5013812;28;20072;-80
2022/12/03 11:53:55;;;;;;;46.88;24.02;;;2.80;99.90;;;;;;5014117;28;20384;-78
2022/12/03 11:56:27;;;;;;;46.83;24.20;;;2.80;99.90;;;;;;4998529;28;20484;-78
2022/12/03 11:58:59;;;;;;;45.60;25.45;;;2.80;99.90;;;;;;4997005;28;20051;-78
2022/12/03 12:01:32;;;;;;;46.10;24.08;;;2.80;99.90;;;;;;5015783;28;20103;-78
2022/12/03 12:03:58;;;;;;;44.72;22.35;;;2.70;99.90;;;;;;5023104;28;20041;-78
2022/12/03 12:06:24;;;;;;;45.03;24.40;;;3.50;99.90;;;;;;4997266;28;20099;-78
2022/12/03 12:08:49;;;;;;;50.25;25.48;;;2.80;99.90;;;;;;4999049;28;20042;-78
2022/12/03 12:11:30;;;;;;;44.35;22.42;;;2.80;99.90;;;;;;4999764;28;20041;-78
2022/12/03 12:13:58;;;;;;;44.78;23.73;;;2.80;99.90;;;;;;5015137;28;20048;-78
2022/12/03 12:16:42;;;;;;;47.22;25.23;;;2.80;99.90;;;;;;4999759;28;20499;-78
2022/12/03 12:19:46;;;;;;;49.33;24.42;;;2.80;99.90;;;;;;4999299;28;20556;-78
2022/12/03 12:22:14;;;;;;;44.70;22.02;;;2.80;99.90;;;;;;4943707;28;20039;-78
2022/12/03 12:24:46;;;;;;;45.97;24.58;;;2.80;99.90;;;;;;4946580;28;20038;-77
2022/12/03 12:27:20;;;;;;;48.13;24.92;;;2.80;99.90;;;;;;4968058;28;20056;-77
2022/12/03 12:29:55;;;;;;;46.17;24.42;;;2.80;99.90;;;;;;4991936;28;20097;-78
2022/12/03 12:32:28;;;;;;;50.75;26.10;;;3.40;99.90;;;;;;5013712;28;20045;-77
2022/12/03 12:35:21;;;;;;;46.75;25.15;;;4.20;99.90;;;;;;5015684;28;20065;-77
2022/12/03 12:38:10;;;;;;;49.08;23.67;;;3.30;99.90;;;;;;5003872;28;20054;-78
2022/12/03 12:40:39;;;;;;;48.03;25.67;;;2.70;99.90;;;;;;5010309;28;20132;-77
2022/12/03 12:43:11;;;;;;;47.72;25.23;;;2.80;99.90;;;;;;4996972;28;20044;-81
2022/12/03 12:45:40;;;;;;;48.70;24.90;;;3.10;99.90;;;;;;4987870;28;20046;-78
2022/12/03 12:48:20;;;;;;;48.08;25.48;;;2.70;99.90;;;;;;4997595;28;20045;-78
2022/12/03 12:50:48;;;;;;;48.88;24.58;;;2.70;99.90;;;;;;5013577;28;20557;-79
2022/12/03 12:53:33;;;;;;;49.05;25.27;;;3.40;99.90;;;;;;5012467;28;20041;-78
2022/12/03 12:56:10;;;;;;;44.88;23.77;;;2.70;99.90;;;;;;5014439;28;20047;-78
2022/12/03 12:58:36;;;;;;;44.20;23.80;;;2.70;99.90;;;;;;5004752;28;20049;-77
2022/12/03 13:01:14;;;;;;;45.05;22.60;;;2.70;99.90;;;;;;4998856;28;20045;-78
2022/12/03 13:03:40;;;;;;;41.92;23.30;;;3.30;99.90;;;;;;5012415;28;20111;-77
2022/12/03 13:06:09;;;;;;;46.22;24.17;;;2.60;99.90;;;;;;5013752;28;20452;-78